sensor_id;sensor_type;location;lat;lon;timestamp;P1;durP1;ratioP1;P2;durP2;ratioP2
18623;SDS011;9441;51.420;7.036;2023-02-17T00:00:23;26.97;;;15.80;;
18623;SDS011;9441;51.420;7.036;2023-02-17T00:01:26;32.03;;;16.93;;
18623;SDS011;9441;51.420;7.036;2023-02-17T00:02:29;38.80;;;16.50;;
18623;SDS011;9441;51.420;7.036;2023-02-17T00:03:32;30.03;;;15.87;;
18623;SDS011;9441;51.420;7.036;2023-02-17T00:04:33;31.93;;;16.93;;
18623;SDS011;9441;51.420;7.036;2023-02-17T00:05:37;28.83;;;16.00;;
18623;SDS011;9441;51.420;7.036;2023-02-17T00:06:39;32.60;;;16.97;;
18623;SDS011;9441;51.420;7.036;2023-02-17T00:07:41;34.03;;;16.17;;
18623;SDS011;9441;51.420;7.036;2023-02-17T00:08:42;28.00;;;15.07;;
18623;SDS011;9441;51.420;7.036;2023-02-17T00:09:45;33.83;;;16.20;;
18623;SDS011;9441;51.420;7.036;2023-02-17T00:10:56;29.27;;;15.47;;
18623;SDS011;9441;51.420;7.036;2023-02-17T00:11:58;32.63;;;16.13;;
18623;SDS011;9441;51.420;7.036;2023-02-17T00:13:00;31.60;;;15.40;;
18623;SDS011;9441;51.420;7.036;2023-02-17T00:14:02;30.93;;;16.33;;
18623;SDS011;9441;51.420;7.036;2023-02-17T00:15:05;27.40;;;15.37;;
18623;SDS011;9441;51.420;7.036;2023-02-17T00:16:07;29.63;;;15.90;;
18623;SDS011;9441;51.420;7.036;2023-02-17T00:17:09;28.07;;;14.77;;
18623;SDS011;9441;51.420;7.036;2023-02-17T00:18:12;30.90;;;15.77;;
18623;SDS011;9441;51.420;7.036;2023-02-17T00:19:14;30.17;;;15.97;;
18623;SDS011;9441;51.420;7.036;2023-02-17T00:20:27;30.17;;;15.80;;
18623;SDS011;9441;51.420;7.036;2023-02-17T00:21:29;35.80;;;15.73;;
18623;SDS011;9441;51.420;7.036;2023-02-17T00:22:31;28.23;;;15.67;;
18623;SDS011;9441;51.420;7.036;2023-02-17T00:23:33;29.90;;;15.27;;
18623;SDS011;9441;51.420;7.036;2023-02-17T00:24:36;26.50;;;15.80;;
18623;SDS011;9441;51.420;7.036;2023-02-17T00:25:38;27.43;;;14.83;;
18623;SDS011;9441;51.420;7.036;2023-02-17T00:26:39;31.07;;;15.50;;
18623;SDS011;9441;51.420;7.036;2023-02-17T00:27:42;28.87;;;15.43;;
18623;SDS011;9441;51.420;7.036;2023-02-17T00:28:43;26.77;;;14.97;;
18623;SDS011;9441;51.420;7.036;2023-02-17T00:29:46;33.17;;;15.50;;
18623;SDS011;9441;51.420;7.036;2023-02-17T00:30:47;26.23;;;14.90;;
18623;SDS011;9441;51.420;7.036;2023-02-17T00:31:50;32.37;;;15.47;;
18623;SDS011;9441;51.420;7.036;2023-02-17T00:32:52;26.90;;;15.03;;
18623;SDS011;9441;51.420;7.036;2023-02-17T00:33:56;27.70;;;14.40;;
18623;SDS011;9441;51.420;7.036;2023-02-17T00:34:57;28.30;;;14.37;;
18623;SDS011;9441;51.420;7.036;2023-02-17T00:36:01;28.60;;;14.47;;
18623;SDS011;9441;51.420;7.036;2023-02-17T00:37:04;26.57;;;14.50;;
18623;SDS011;9441;51.420;7.036;2023-02-17T00:38:06;27.10;;;14.17;;
18623;SDS011;9441;51.420;7.036;2023-02-17T00:39:07;26.13;;;13.40;;
18623;SDS011;9441;51.420;7.036;2023-02-17T00:40:10;28.50;;;15.03;;
18623;SDS011;9441;51.420;7.036;2023-02-17T00:41:11;27.70;;;13.67;;
18623;SDS011;9441;51.420;7.036;2023-02-17T00:42:14;26.87;;;14.53;;
18623;SDS011;9441;51.420;7.036;2023-02-17T00:43:15;23.93;;;14.50;;
18623;SDS011;9441;51.420;7.036;2023-02-17T00:44:18;27.50;;;14.30;;
18623;SDS011;9441;51.420;7.036;2023-02-17T00:45:20;28.17;;;15.17;;
18623;SDS011;9441;51.420;7.036;2023-02-17T00:46:22;30.97;;;15.47;;
18623;SDS011;9441;51.420;7.036;2023-02-17T00:47:25;25.37;;;14.13;;
18623;SDS011;9441;51.420;7.036;2023-02-17T00:48:28;24.67;;;14.07;;
18623;SDS011;9441;51.420;7.036;2023-02-17T00:49:31;23.97;;;14.27;;
18623;SDS011;9441;51.420;7.036;2023-02-17T00:50:33;25.60;;;13.97;;
18623;SDS011;9441;51.420;7.036;2023-02-17T00:51:38;23.97;;;14.77;;
18623;SDS011;9441;51.420;7.036;2023-02-17T00:52:40;26.93;;;14.83;;
18623;SDS011;9441;51.420;7.036;2023-02-17T00:53:42;28.87;;;13.67;;
18623;SDS011;9441;51.420;7.036;2023-02-17T00:54:44;29.13;;;14.13;;
18623;SDS011;9441;51.420;7.036;2023-02-17T00:55:45;30.27;;;14.77;;
18623;SDS011;9441;51.420;7.036;2023-02-17T00:56:49;25.53;;;13.30;;
18623;SDS011;9441;51.420;7.036;2023-02-17T00:57:50;26.23;;;14.10;;
18623;SDS011;9441;51.420;7.036;2023-02-17T00:58:52;27.10;;;13.87;;
18623;SDS011;9441;51.420;7.036;2023-02-17T00:59:54;29.20;;;14.73;;
18623;SDS011;9441;51.420;7.036;2023-02-17T01:00:56;31.63;;;14.33;;
18623;SDS011;9441;51.420;7.036;2023-02-17T01:01:58;30.57;;;14.67;;
18623;SDS011;9441;51.420;7.036;2023-02-17T01:03:00;26.57;;;14.20;;
18623;SDS011;9441;51.420;7.036;2023-02-17T01:04:01;27.97;;;14.60;;
18623;SDS011;9441;51.420;7.036;2023-02-17T01:05:06;23.77;;;13.70;;
18623;SDS011;9441;51.420;7.036;2023-02-17T01:06:08;24.63;;;14.50;;
18623;SDS011;9441;51.420;7.036;2023-02-17T01:07:11;29.40;;;14.87;;
18623;SDS011;9441;51.420;7.036;2023-02-17T01:08:13;28.37;;;14.67;;
18623;SDS011;9441;51.420;7.036;2023-02-17T01:09:16;25.70;;;14.13;;
18623;SDS011;9441;51.420;7.036;2023-02-17T01:10:17;28.10;;;15.03;;
18623;SDS011;9441;51.420;7.036;2023-02-17T01:11:22;24.63;;;14.23;;
18623;SDS011;9441;51.420;7.036;2023-02-17T01:12:23;24.83;;;14.27;;
18623;SDS011;9441;51.420;7.036;2023-02-17T01:13:26;29.50;;;14.67;;
18623;SDS011;9441;51.420;7.036;2023-02-17T01:14:28;30.47;;;15.23;;
18623;SDS011;9441;51.420;7.036;2023-02-17T01:15:31;28.27;;;15.67;;
18623;SDS011;9441;51.420;7.036;2023-02-17T01:16:37;29.90;;;15.10;;
18623;SDS011;9441;51.420;7.036;2023-02-17T01:17:39;24.93;;;14.73;;
18623;SDS011;9441;51.420;7.036;2023-02-17T01:18:41;29.20;;;14.90;;
18623;SDS011;9441;51.420;7.036;2023-02-17T01:19:45;29.57;;;15.33;;
18623;SDS011;9441;51.420;7.036;2023-02-17T01:20:47;27.73;;;14.77;;
18623;SDS011;9441;51.420;7.036;2023-02-17T01:21:50;26.27;;;14.63;;
18623;SDS011;9441;51.420;7.036;2023-02-17T01:22:51;27.90;;;15.10;;
18623;SDS011;9441;51.420;7.036;2023-02-17T01:23:54;30.10;;;14.77;;
18623;SDS011;9441;51.420;7.036;2023-02-17T01:24:55;29.23;;;14.90;;
18623;SDS011;9441;51.420;7.036;2023-02-17T01:26:02;29.90;;;15.27;;
18623;SDS011;9441;51.420;7.036;2023-02-17T01:27:04;33.17;;;15.03;;
18623;SDS011;9441;51.420;7.036;2023-02-17T01:28:06;30.37;;;15.03;;
18623;SDS011;9441;51.420;7.036;2023-02-17T01:29:08;29.60;;;14.30;;
18623;SDS011;9441;51.420;7.036;2023-02-17T01:30:11;30.70;;;14.93;;
18623;SDS011;9441;51.420;7.036;2023-02-17T01:31:12;28.17;;;15.10;;
18623;SDS011;9441;51.420;7.036;2023-02-17T01:32:15;30.30;;;15.93;;
18623;SDS011;9441;51.420;7.036;2023-02-17T01:33:18;28.43;;;15.33;;
18623;SDS011;9441;51.420;7.036;2023-02-17T01:34:19;32.50;;;15.63;;
18623;SDS011;9441;51.420;7.036;2023-02-17T01:35:22;30.00;;;15.47;;
18623;SDS011;9441;51.420;7.036;2023-02-17T01:36:25;34.83;;;15.77;;
18623;SDS011;9441;51.420;7.036;2023-02-17T01:37:27;29.90;;;15.30;;
18623;SDS011;9441;51.420;7.036;2023-02-17T01:38:28;29.17;;;16.30;;
18623;SDS011;9441;51.420;7.036;2023-02-17T01:39:31;34.20;;;15.67;;
18623;SDS011;9441;51.420;7.036;2023-02-17T01:40:32;30.53;;;15.33;;
18623;SDS011;9441;51.420;7.036;2023-02-17T01:41:34;30.17;;;16.40;;
18623;SDS011;9441;51.420;7.036;2023-02-17T01:42:36;31.17;;;16.17;;
18623;SDS011;9441;51.420;7.036;2023-02-17T01:43:38;29.53;;;16.13;;
18623;SDS011;9441;51.420;7.036;2023-02-17T01:45:58;29.03;;;16.00;;
18623;SDS011;9441;51.420;7.036;2023-02-17T01:46:59;23.50;;;14.77;;
18623;SDS011;9441;51.420;7.036;2023-02-17T01:48:03;30.00;;;15.70;;
18623;SDS011;9441;51.420;7.036;2023-02-17T01:49:09;29.30;;;16.23;;
18623;SDS011;9441;51.420;7.036;2023-02-17T01:50:14;28.17;;;15.30;;
18623;SDS011;9441;51.420;7.036;2023-02-17T01:51:17;28.73;;;15.73;;
18623;SDS011;9441;51.420;7.036;2023-02-17T01:52:23;33.53;;;16.67;;
18623;SDS011;9441;51.420;7.036;2023-02-17T01:53:26;31.27;;;15.90;;
18623;SDS011;9441;51.420;7.036;2023-02-17T01:54:32;32.43;;;16.50;;
18623;SDS011;9441;51.420;7.036;2023-02-17T01:55:35;34.47;;;17.13;;
18623;SDS011;9441;51.420;7.036;2023-02-17T01:56:39;32.00;;;16.90;;
18623;SDS011;9441;51.420;7.036;2023-02-17T01:57:41;28.63;;;16.83;;
18623;SDS011;9441;51.420;7.036;2023-02-17T01:58:49;37.30;;;17.27;;
18623;SDS011;9441;51.420;7.036;2023-02-17T01:59:53;33.80;;;16.87;;
18623;SDS011;9441;51.420;7.036;2023-02-17T02:00:55;30.73;;;16.03;;
18623;SDS011;9441;51.420;7.036;2023-02-17T02:01:58;30.77;;;17.53;;
18623;SDS011;9441;51.420;7.036;2023-02-17T02:03:00;29.80;;;15.93;;
18623;SDS011;9441;51.420;7.036;2023-02-17T02:04:03;31.47;;;17.27;;
18623;SDS011;9441;51.420;7.036;2023-02-17T02:05:06;36.00;;;17.50;;
18623;SDS011;9441;51.420;7.036;2023-02-17T02:06:10;30.70;;;17.10;;
18623;SDS011;9441;51.420;7.036;2023-02-17T02:07:12;34.93;;;17.53;;
18623;SDS011;9441;51.420;7.036;2023-02-17T02:08:17;32.67;;;17.33;;
18623;SDS011;9441;51.420;7.036;2023-02-17T02:09:20;34.13;;;17.37;;
18623;SDS011;9441;51.420;7.036;2023-02-17T02:10:22;33.27;;;16.70;;
18623;SDS011;9441;51.420;7.036;2023-02-17T02:11:25;32.90;;;17.23;;
18623;SDS011;9441;51.420;7.036;2023-02-17T02:12:27;31.03;;;16.70;;
18623;SDS011;9441;51.420;7.036;2023-02-17T02:13:29;29.40;;;16.87;;
18623;SDS011;9441;51.420;7.036;2023-02-17T02:14:33;33.10;;;17.97;;
18623;SDS011;9441;51.420;7.036;2023-02-17T02:15:37;32.33;;;17.47;;
18623;SDS011;9441;51.420;7.036;2023-02-17T02:16:42;29.73;;;16.67;;
18623;SDS011;9441;51.420;7.036;2023-02-17T02:17:51;31.37;;;16.00;;
18623;SDS011;9441;51.420;7.036;2023-02-17T02:18:55;30.67;;;15.60;;
18623;SDS011;9441;51.420;7.036;2023-02-17T02:20:04;34.37;;;16.80;;
18623;SDS011;9441;51.420;7.036;2023-02-17T02:21:16;33.87;;;16.57;;
18623;SDS011;9441;51.420;7.036;2023-02-17T02:22:23;31.30;;;16.40;;
18623;SDS011;9441;51.420;7.036;2023-02-17T02:23:42;30.17;;;16.93;;
18623;SDS011;9441;51.420;7.036;2023-02-17T02:24:52;38.17;;;16.87;;
18623;SDS011;9441;51.420;7.036;2023-02-17T02:27:31;30.20;;;16.00;;
18623;SDS011;9441;51.420;7.036;2023-02-17T02:28:37;29.97;;;16.23;;
18623;SDS011;9441;51.420;7.036;2023-02-17T02:29:54;31.53;;;15.70;;
18623;SDS011;9441;51.420;7.036;2023-02-17T02:31:00;34.80;;;15.80;;
18623;SDS011;9441;51.420;7.036;2023-02-17T02:33:13;28.90;;;15.73;;
18623;SDS011;9441;51.420;7.036;2023-02-17T02:34:18;27.57;;;16.07;;
18623;SDS011;9441;51.420;7.036;2023-02-17T02:35:21;33.50;;;15.67;;
18623;SDS011;9441;51.420;7.036;2023-02-17T02:36:28;31.73;;;16.57;;
18623;SDS011;9441;51.420;7.036;2023-02-17T02:37:32;28.73;;;15.77;;
18623;SDS011;9441;51.420;7.036;2023-02-17T02:38:38;34.33;;;15.87;;
18623;SDS011;9441;51.420;7.036;2023-02-17T02:39:42;32.30;;;15.87;;
18623;SDS011;9441;51.420;7.036;2023-02-17T02:40:46;27.57;;;14.80;;
18623;SDS011;9441;51.420;7.036;2023-02-17T02:41:49;29.47;;;15.80;;
18623;SDS011;9441;51.420;7.036;2023-02-17T02:42:53;26.33;;;15.00;;
18623;SDS011;9441;51.420;7.036;2023-02-17T02:43:55;30.60;;;15.53;;
18623;SDS011;9441;51.420;7.036;2023-02-17T02:44:58;27.90;;;15.03;;
18623;SDS011;9441;51.420;7.036;2023-02-17T02:45:59;26.73;;;14.50;;
18623;SDS011;9441;51.420;7.036;2023-02-17T02:47:02;24.57;;;14.80;;
18623;SDS011;9441;51.420;7.036;2023-02-17T02:48:05;26.57;;;14.60;;
18623;SDS011;9441;51.420;7.036;2023-02-17T02:49:08;32.13;;;15.20;;
18623;SDS011;9441;51.420;7.036;2023-02-17T02:50:11;25.43;;;14.80;;
18623;SDS011;9441;51.420;7.036;2023-02-17T02:51:17;26.50;;;14.93;;
18623;SDS011;9441;51.420;7.036;2023-02-17T02:52:23;27.17;;;14.47;;
18623;SDS011;9441;51.420;7.036;2023-02-17T02:53:34;23.83;;;14.10;;
18623;SDS011;9441;51.420;7.036;2023-02-17T02:54:45;26.13;;;14.00;;
18623;SDS011;9441;51.420;7.036;2023-02-17T02:55:52;24.23;;;14.23;;
18623;SDS011;9441;51.420;7.036;2023-02-17T02:56:58;23.87;;;14.13;;
18623;SDS011;9441;51.420;7.036;2023-02-17T02:58:05;25.60;;;13.83;;
18623;SDS011;9441;51.420;7.036;2023-02-17T02:59:10;24.47;;;14.20;;
18623;SDS011;9441;51.420;7.036;2023-02-17T03:00:17;24.73;;;13.43;;
18623;SDS011;9441;51.420;7.036;2023-02-17T03:01:21;25.77;;;13.33;;
18623;SDS011;9441;51.420;7.036;2023-02-17T03:02:26;23.10;;;12.97;;
18623;SDS011;9441;51.420;7.036;2023-02-17T03:03:32;24.70;;;14.37;;
18623;SDS011;9441;51.420;7.036;2023-02-17T03:04:37;26.27;;;13.87;;
18623;SDS011;9441;51.420;7.036;2023-02-17T03:05:44;22.73;;;13.40;;
18623;SDS011;9441;51.420;7.036;2023-02-17T03:06:53;22.73;;;13.07;;
18623;SDS011;9441;51.420;7.036;2023-02-17T03:07:58;22.50;;;12.93;;
18623;SDS011;9441;51.420;7.036;2023-02-17T03:09:02;21.27;;;12.27;;
18623;SDS011;9441;51.420;7.036;2023-02-17T03:10:06;22.83;;;13.40;;
18623;SDS011;9441;51.420;7.036;2023-02-17T03:11:08;22.33;;;13.47;;
18623;SDS011;9441;51.420;7.036;2023-02-17T03:12:10;23.63;;;12.73;;
18623;SDS011;9441;51.420;7.036;2023-02-17T03:13:12;22.50;;;12.83;;
18623;SDS011;9441;51.420;7.036;2023-02-17T03:14:15;22.60;;;13.67;;
18623;SDS011;9441;51.420;7.036;2023-02-17T03:15:18;23.83;;;13.23;;
18623;SDS011;9441;51.420;7.036;2023-02-17T03:16:22;24.87;;;12.60;;
18623;SDS011;9441;51.420;7.036;2023-02-17T03:17:24;21.80;;;12.57;;
18623;SDS011;9441;51.420;7.036;2023-02-17T03:18:27;18.73;;;12.10;;
18623;SDS011;9441;51.420;7.036;2023-02-17T03:19:28;22.40;;;12.37;;
18623;SDS011;9441;51.420;7.036;2023-02-17T03:20:33;19.70;;;12.50;;
18623;SDS011;9441;51.420;7.036;2023-02-17T03:21:37;20.30;;;12.10;;
18623;SDS011;9441;51.420;7.036;2023-02-17T03:22:40;22.10;;;13.20;;
18623;SDS011;9441;51.420;7.036;2023-02-17T03:23:43;21.13;;;12.40;;
18623;SDS011;9441;51.420;7.036;2023-02-17T03:24:45;20.30;;;12.50;;
18623;SDS011;9441;51.420;7.036;2023-02-17T03:25:47;19.63;;;11.63;;
18623;SDS011;9441;51.420;7.036;2023-02-17T03:26:49;20.40;;;12.00;;
18623;SDS011;9441;51.420;7.036;2023-02-17T03:27:51;21.90;;;12.50;;
18623;SDS011;9441;51.420;7.036;2023-02-17T03:28:53;18.97;;;12.17;;
18623;SDS011;9441;51.420;7.036;2023-02-17T03:29:54;17.57;;;12.17;;
18623;SDS011;9441;51.420;7.036;2023-02-17T03:30:57;19.93;;;12.53;;
18623;SDS011;9441;51.420;7.036;2023-02-17T03:31:58;24.33;;;12.63;;
18623;SDS011;9441;51.420;7.036;2023-02-17T03:33:01;19.30;;;12.80;;
18623;SDS011;9441;51.420;7.036;2023-02-17T03:34:02;19.53;;;12.23;;
18623;SDS011;9441;51.420;7.036;2023-02-17T03:35:05;21.53;;;13.03;;
18623;SDS011;9441;51.420;7.036;2023-02-17T03:36:07;24.73;;;12.53;;
18623;SDS011;9441;51.420;7.036;2023-02-17T03:37:10;21.63;;;12.10;;
18623;SDS011;9441;51.420;7.036;2023-02-17T03:38:11;20.80;;;12.53;;
18623;SDS011;9441;51.420;7.036;2023-02-17T03:39:13;22.37;;;12.03;;
18623;SDS011;9441;51.420;7.036;2023-02-17T03:40:16;18.73;;;11.83;;
18623;SDS011;9441;51.420;7.036;2023-02-17T03:41:18;23.10;;;12.43;;
18623;SDS011;9441;51.420;7.036;2023-02-17T03:42:19;20.13;;;12.57;;
18623;SDS011;9441;51.420;7.036;2023-02-17T03:43:22;19.30;;;11.73;;
18623;SDS011;9441;51.420;7.036;2023-02-17T03:44:23;20.03;;;10.97;;
18623;SDS011;9441;51.420;7.036;2023-02-17T03:45:25;19.47;;;11.33;;
18623;SDS011;9441;51.420;7.036;2023-02-17T03:46:27;20.63;;;11.53;;
18623;SDS011;9441;51.420;7.036;2023-02-17T03:47:29;18.37;;;11.80;;
18623;SDS011;9441;51.420;7.036;2023-02-17T03:48:30;18.77;;;10.77;;
18623;SDS011;9441;51.420;7.036;2023-02-17T03:49:33;20.33;;;12.13;;
18623;SDS011;9441;51.420;7.036;2023-02-17T03:50:34;21.87;;;11.87;;
18623;SDS011;9441;51.420;7.036;2023-02-17T03:51:38;19.07;;;11.87;;
18623;SDS011;9441;51.420;7.036;2023-02-17T03:52:39;20.70;;;11.57;;
18623;SDS011;9441;51.420;7.036;2023-02-17T03:53:42;19.40;;;11.50;;
18623;SDS011;9441;51.420;7.036;2023-02-17T03:54:43;18.27;;;11.67;;
18623;SDS011;9441;51.420;7.036;2023-02-17T03:55:45;17.30;;;10.87;;
18623;SDS011;9441;51.420;7.036;2023-02-17T03:56:47;17.27;;;10.97;;
18623;SDS011;9441;51.420;7.036;2023-02-17T03:57:49;17.67;;;11.70;;
18623;SDS011;9441;51.420;7.036;2023-02-17T03:58:50;20.00;;;11.03;;
18623;SDS011;9441;51.420;7.036;2023-02-17T03:59:53;16.77;;;10.67;;
18623;SDS011;9441;51.420;7.036;2023-02-17T04:00:54;18.57;;;11.03;;
18623;SDS011;9441;51.420;7.036;2023-02-17T04:01:56;18.80;;;11.87;;
18623;SDS011;9441;51.420;7.036;2023-02-17T04:02:58;19.07;;;11.20;;
18623;SDS011;9441;51.420;7.036;2023-02-17T04:04:00;17.50;;;10.87;;
18623;SDS011;9441;51.420;7.036;2023-02-17T04:05:01;17.57;;;11.97;;
18623;SDS011;9441;51.420;7.036;2023-02-17T04:06:04;19.57;;;11.87;;
18623;SDS011;9441;51.420;7.036;2023-02-17T04:07:07;19.63;;;11.00;;
18623;SDS011;9441;51.420;7.036;2023-02-17T04:08:09;19.83;;;12.10;;
18623;SDS011;9441;51.420;7.036;2023-02-17T04:09:11;17.50;;;10.97;;
18623;SDS011;9441;51.420;7.036;2023-02-17T04:10:13;20.30;;;11.47;;
18623;SDS011;9441;51.420;7.036;2023-02-17T04:11:15;19.00;;;10.90;;
18623;SDS011;9441;51.420;7.036;2023-02-17T04:12:17;17.73;;;11.13;;
18623;SDS011;9441;51.420;7.036;2023-02-17T04:13:18;17.53;;;11.17;;
18623;SDS011;9441;51.420;7.036;2023-02-17T04:14:21;18.13;;;11.43;;
18623;SDS011;9441;51.420;7.036;2023-02-17T04:15:22;20.70;;;12.13;;
18623;SDS011;9441;51.420;7.036;2023-02-17T04:16:25;16.43;;;10.93;;
18623;SDS011;9441;51.420;7.036;2023-02-17T04:17:26;19.83;;;11.67;;
18623;SDS011;9441;51.420;7.036;2023-02-17T04:18:28;15.67;;;10.27;;
18623;SDS011;9441;51.420;7.036;2023-02-17T04:19:30;17.40;;;11.13;;
18623;SDS011;9441;51.420;7.036;2023-02-17T04:20:32;18.97;;;10.93;;
18623;SDS011;9441;51.420;7.036;2023-02-17T04:21:34;18.10;;;11.90;;
18623;SDS011;9441;51.420;7.036;2023-02-17T04:22:38;16.23;;;10.33;;
18623;SDS011;9441;51.420;7.036;2023-02-17T04:23:39;21.70;;;11.13;;
18623;SDS011;9441;51.420;7.036;2023-02-17T04:24:41;15.83;;;10.37;;
18623;SDS011;9441;51.420;7.036;2023-02-17T04:25:43;18.63;;;11.50;;
18623;SDS011;9441;51.420;7.036;2023-02-17T04:26:45;19.10;;;11.13;;
18623;SDS011;9441;51.420;7.036;2023-02-17T04:27:47;17.87;;;10.87;;
18623;SDS011;9441;51.420;7.036;2023-02-17T04:28:49;14.83;;;10.50;;
18623;SDS011;9441;51.420;7.036;2023-02-17T04:29:50;17.53;;;11.07;;
18623;SDS011;9441;51.420;7.036;2023-02-17T04:30:55;16.33;;;10.23;;
18623;SDS011;9441;51.420;7.036;2023-02-17T04:31:57;17.30;;;10.17;;
18623;SDS011;9441;51.420;7.036;2023-02-17T04:32:59;18.53;;;10.40;;
18623;SDS011;9441;51.420;7.036;2023-02-17T04:34:01;18.37;;;9.83;;
18623;SDS011;9441;51.420;7.036;2023-02-17T04:35:03;16.73;;;10.03;;
18623;SDS011;9441;51.420;7.036;2023-02-17T04:36:05;16.03;;;10.53;;
18623;SDS011;9441;51.420;7.036;2023-02-17T04:37:07;14.73;;;9.90;;
18623;SDS011;9441;51.420;7.036;2023-02-17T04:38:11;17.70;;;10.23;;
18623;SDS011;9441;51.420;7.036;2023-02-17T04:39:12;16.57;;;10.30;;
18623;SDS011;9441;51.420;7.036;2023-02-17T04:40:15;18.00;;;11.13;;
18623;SDS011;9441;51.420;7.036;2023-02-17T04:41:16;17.73;;;10.77;;
18623;SDS011;9441;51.420;7.036;2023-02-17T04:42:19;15.03;;;10.17;;
18623;SDS011;9441;51.420;7.036;2023-02-17T04:43:20;15.63;;;10.27;;
18623;SDS011;9441;51.420;7.036;2023-02-17T04:44:23;18.80;;;11.07;;
18623;SDS011;9441;51.420;7.036;2023-02-17T04:45:24;18.40;;;10.30;;
18623;SDS011;9441;51.420;7.036;2023-02-17T04:46:26;18.30;;;10.67;;
18623;SDS011;9441;51.420;7.036;2023-02-17T04:47:28;17.60;;;11.13;;
18623;SDS011;9441;51.420;7.036;2023-02-17T04:48:30;15.23;;;10.27;;
18623;SDS011;9441;51.420;7.036;2023-02-17T04:49:31;15.30;;;10.37;;
18623;SDS011;9441;51.420;7.036;2023-02-17T04:50:34;16.33;;;10.23;;
18623;SDS011;9441;51.420;7.036;2023-02-17T04:51:35;15.97;;;10.40;;
18623;SDS011;9441;51.420;7.036;2023-02-17T04:52:37;16.87;;;10.53;;
18623;SDS011;9441;51.420;7.036;2023-02-17T04:53:40;16.70;;;10.47;;
18623;SDS011;9441;51.420;7.036;2023-02-17T04:54:42;17.97;;;10.80;;
18623;SDS011;9441;51.420;7.036;2023-02-17T04:55:46;19.10;;;11.03;;
18623;SDS011;9441;51.420;7.036;2023-02-17T04:56:48;18.90;;;10.83;;
18623;SDS011;9441;51.420;7.036;2023-02-17T04:57:50;19.13;;;11.17;;
18623;SDS011;9441;51.420;7.036;2023-02-17T04:58:52;19.07;;;11.63;;
18623;SDS011;9441;51.420;7.036;2023-02-17T04:59:53;18.20;;;11.83;;
18623;SDS011;9441;51.420;7.036;2023-02-17T05:00:57;19.03;;;11.87;;
18623;SDS011;9441;51.420;7.036;2023-02-17T05:01:59;17.83;;;11.17;;
18623;SDS011;9441;51.420;7.036;2023-02-17T05:03:01;18.07;;;11.27;;
18623;SDS011;9441;51.420;7.036;2023-02-17T05:04:03;19.50;;;11.67;;
18623;SDS011;9441;51.420;7.036;2023-02-17T05:05:05;17.37;;;11.07;;
18623;SDS011;9441;51.420;7.036;2023-02-17T05:06:08;17.23;;;11.23;;
18623;SDS011;9441;51.420;7.036;2023-02-17T05:07:10;16.20;;;10.33;;
18623;SDS011;9441;51.420;7.036;2023-02-17T05:08:11;18.30;;;10.87;;
18623;SDS011;9441;51.420;7.036;2023-02-17T05:09:15;18.80;;;11.47;;
18623;SDS011;9441;51.420;7.036;2023-02-17T05:10:17;16.57;;;10.30;;
18623;SDS011;9441;51.420;7.036;2023-02-17T05:11:19;16.67;;;10.07;;
18623;SDS011;9441;51.420;7.036;2023-02-17T05:12:21;15.57;;;9.47;;
18623;SDS011;9441;51.420;7.036;2023-02-17T05:13:23;16.40;;;10.20;;
18623;SDS011;9441;51.420;7.036;2023-02-17T05:14:26;16.50;;;10.57;;
18623;SDS011;9441;51.420;7.036;2023-02-17T05:15:29;16.57;;;9.90;;
18623;SDS011;9441;51.420;7.036;2023-02-17T05:16:30;17.53;;;10.20;;
18623;SDS011;9441;51.420;7.036;2023-02-17T05:17:32;18.00;;;10.23;;
18623;SDS011;9441;51.420;7.036;2023-02-17T05:18:34;17.77;;;10.53;;
18623;SDS011;9441;51.420;7.036;2023-02-17T05:19:36;19.50;;;11.00;;
18623;SDS011;9441;51.420;7.036;2023-02-17T05:20:38;17.90;;;10.37;;
18623;SDS011;9441;51.420;7.036;2023-02-17T05:21:40;15.53;;;10.53;;
18623;SDS011;9441;51.420;7.036;2023-02-17T05:22:41;17.63;;;10.13;;
18623;SDS011;9441;51.420;7.036;2023-02-17T05:23:44;16.77;;;11.03;;
18623;SDS011;9441;51.420;7.036;2023-02-17T05:24:46;17.13;;;10.80;;
18623;SDS011;9441;51.420;7.036;2023-02-17T05:25:49;16.33;;;11.10;;
18623;SDS011;9441;51.420;7.036;2023-02-17T05:26:50;17.90;;;11.67;;
18623;SDS011;9441;51.420;7.036;2023-02-17T05:27:52;17.53;;;11.80;;
18623;SDS011;9441;51.420;7.036;2023-02-17T05:28:54;19.60;;;11.60;;
18623;SDS011;9441;51.420;7.036;2023-02-17T05:29:56;18.87;;;11.80;;
18623;SDS011;9441;51.420;7.036;2023-02-17T05:30:57;18.00;;;11.53;;
18623;SDS011;9441;51.420;7.036;2023-02-17T05:32:01;19.37;;;11.33;;
18623;SDS011;9441;51.420;7.036;2023-02-17T05:33:02;18.20;;;11.87;;
18623;SDS011;9441;51.420;7.036;2023-02-17T05:34:05;18.33;;;11.87;;
18623;SDS011;9441;51.420;7.036;2023-02-17T05:35:06;19.23;;;11.93;;
18623;SDS011;9441;51.420;7.036;2023-02-17T05:36:09;18.70;;;11.67;;
18623;SDS011;9441;51.420;7.036;2023-02-17T05:37:11;21.27;;;12.27;;
18623;SDS011;9441;51.420;7.036;2023-02-17T05:38:13;23.87;;;12.07;;
18623;SDS011;9441;51.420;7.036;2023-02-17T05:39:15;19.27;;;11.47;;
18623;SDS011;9441;51.420;7.036;2023-02-17T05:40:18;18.67;;;12.20;;
18623;SDS011;9441;51.420;7.036;2023-02-17T05:41:20;20.00;;;12.00;;
18623;SDS011;9441;51.420;7.036;2023-02-17T05:42:22;19.03;;;12.07;;
18623;SDS011;9441;51.420;7.036;2023-02-17T05:43:27;17.70;;;11.73;;
18623;SDS011;9441;51.420;7.036;2023-02-17T05:44:29;19.20;;;11.87;;
18623;SDS011;9441;51.420;7.036;2023-02-17T05:45:31;20.57;;;11.37;;
18623;SDS011;9441;51.420;7.036;2023-02-17T05:46:33;18.73;;;12.13;;
18623;SDS011;9441;51.420;7.036;2023-02-17T05:47:35;20.70;;;11.20;;
18623;SDS011;9441;51.420;7.036;2023-02-17T05:48:36;19.30;;;11.47;;
18623;SDS011;9441;51.420;7.036;2023-02-17T05:49:38;17.73;;;11.60;;
18623;SDS011;9441;51.420;7.036;2023-02-17T05:50:40;16.77;;;11.07;;
18623;SDS011;9441;51.420;7.036;2023-02-17T05:51:42;16.17;;;10.43;;
18623;SDS011;9441;51.420;7.036;2023-02-17T05:52:43;14.73;;;10.13;;
18623;SDS011;9441;51.420;7.036;2023-02-17T05:53:46;15.07;;;10.17;;
18623;SDS011;9441;51.420;7.036;2023-02-17T05:54:47;18.47;;;11.00;;
18623;SDS011;9441;51.420;7.036;2023-02-17T05:55:51;16.67;;;10.53;;
18623;SDS011;9441;51.420;7.036;2023-02-17T05:56:52;19.20;;;10.13;;
18623;SDS011;9441;51.420;7.036;2023-02-17T05:57:54;17.00;;;10.20;;
18623;SDS011;9441;51.420;7.036;2023-02-17T05:58:56;15.43;;;9.80;;
18623;SDS011;9441;51.420;7.036;2023-02-17T05:59:59;13.67;;;9.70;;
18623;SDS011;9441;51.420;7.036;2023-02-17T06:01:01;16.47;;;10.77;;
18623;SDS011;9441;51.420;7.036;2023-02-17T06:02:03;15.77;;;10.73;;
18623;SDS011;9441;51.420;7.036;2023-02-17T06:03:04;15.37;;;10.43;;
18623;SDS011;9441;51.420;7.036;2023-02-17T06:04:07;14.97;;;10.63;;
18623;SDS011;9441;51.420;7.036;2023-02-17T06:05:08;17.50;;;10.07;;
18623;SDS011;9441;51.420;7.036;2023-02-17T06:06:10;16.77;;;9.90;;
18623;SDS011;9441;51.420;7.036;2023-02-17T06:07:12;17.30;;;10.67;;
18623;SDS011;9441;51.420;7.036;2023-02-17T06:08:14;18.50;;;10.10;;
18623;SDS011;9441;51.420;7.036;2023-02-17T06:09:16;16.70;;;9.80;;
18623;SDS011;9441;51.420;7.036;2023-02-17T06:10:18;15.37;;;10.23;;
18623;SDS011;9441;51.420;7.036;2023-02-17T06:11:21;18.47;;;10.63;;
18623;SDS011;9441;51.420;7.036;2023-02-17T06:12:23;17.37;;;10.43;;
18623;SDS011;9441;51.420;7.036;2023-02-17T06:13:24;17.13;;;10.40;;
18623;SDS011;9441;51.420;7.036;2023-02-17T06:14:27;16.23;;;10.97;;
18623;SDS011;9441;51.420;7.036;2023-02-17T06:15:29;19.40;;;10.60;;
18623;SDS011;9441;51.420;7.036;2023-02-17T06:16:30;15.97;;;11.10;;
18623;SDS011;9441;51.420;7.036;2023-02-17T06:17:33;16.77;;;10.70;;